createdAt,value
2022-11-12T00:00:56.444Z,0.00
2022-11-12T00:01:56.480Z,0.00
2022-11-12T00:02:56.425Z,0.00
2022-11-12T00:03:56.433Z,0.00
2022-11-12T00:04:56.428Z,0.00
2022-11-12T00:05:56.530Z,0.00
2022-11-12T00:06:56.517Z,0.00
2022-11-12T00:07:56.416Z,0.00
2022-11-12T00:08:56.415Z,0.00
2022-11-12T00:09:56.409Z,0.00
2022-11-12T00:10:56.409Z,0.00
2022-11-12T00:11:56.402Z,0.00
2022-11-12T00:12:56.404Z,0.00
2022-11-12T00:13:56.401Z,0.00
2022-11-12T00:14:56.398Z,0.00
2022-11-12T00:15:56.515Z,0.00
2022-11-12T00:16:56.398Z,0.00
2022-11-12T00:17:56.395Z,0.00
2022-11-12T00:18:56.388Z,0.00
2022-11-12T00:19:56.433Z,0.00
2022-11-12T00:20:56.383Z,0.00
2022-11-12T00:21:56.380Z,0.00
2022-11-12T00:22:56.376Z,0.00
2022-11-12T00:23:56.373Z,0.00
2022-11-12T00:24:56.374Z,0.00
2022-11-12T00:25:56.376Z,0.00
2022-11-12T00:26:56.368Z,0.00
2022-11-12T00:27:56.370Z,0.00
2022-11-12T00:28:56.362Z,0.00
2022-11-12T00:29:56.385Z,0.00
2022-11-12T00:30:56.355Z,0.00
2022-11-12T00:31:56.469Z,0.00
2022-11-12T00:32:56.354Z,0.00
2022-11-12T00:33:56.350Z,0.00
2022-11-12T00:34:56.352Z,0.00
2022-11-12T00:35:56.342Z,0.00
2022-11-12T00:36:56.341Z,0.00
2022-11-12T00:37:56.335Z,0.00
2022-11-12T00:38:56.327Z,0.00
2022-11-12T00:39:56.335Z,0.00
2022-11-12T00:40:56.331Z,0.00
2022-11-12T00:41:56.334Z,0.00
2022-11-12T00:42:56.404Z,0.00
2022-11-12T00:43:56.329Z,0.00
2022-11-12T00:44:56.319Z,0.00
2022-11-12T00:45:56.313Z,0.00
2022-11-12T00:46:56.308Z,0.00
2022-11-12T00:47:56.431Z,0.00
2022-11-12T00:48:56.324Z,0.00
2022-11-12T00:49:56.315Z,0.00
2022-11-12T00:50:56.300Z,0.00
2022-11-12T00:51:56.299Z,0.00
2022-11-12T00:52:56.290Z,0.00
2022-11-12T00:53:56.290Z,0.00
2022-11-12T00:54:56.288Z,0.00
2022-11-12T00:55:56.290Z,0.00
2022-11-12T00:56:56.282Z,0.00
2022-11-12T00:57:56.279Z,0.00
2022-11-12T00:58:56.281Z,0.00
2022-11-12T00:59:56.284Z,0.00
2022-11-12T01:00:56.314Z,0.00
2022-11-12T01:01:56.267Z,0.00
2022-11-12T01:02:56.270Z,0.00
2022-11-12T01:03:56.418Z,0.00
2022-11-12T01:04:56.409Z,0.00
2022-11-12T01:05:56.253Z,0.00
2022-11-12T01:06:56.310Z,0.00
2022-11-12T01:07:56.468Z,0.00
2022-11-12T01:08:56.255Z,0.00
2022-11-12T01:09:56.246Z,0.00
2022-11-12T01:10:56.245Z,0.00
2022-11-12T01:11:56.239Z,0.00
2022-11-12T01:12:56.236Z,0.00
2022-11-12T01:13:56.235Z,0.00
2022-11-12T01:14:56.238Z,0.00
2022-11-12T01:15:56.231Z,0.00
2022-11-12T01:16:56.223Z,0.00
2022-11-12T01:17:56.225Z,0.00
2022-11-12T01:18:56.218Z,0.00
2022-11-12T01:19:56.338Z,0.00
2022-11-12T01:20:56.215Z,0.00
2022-11-12T01:21:56.203Z,0.00
2022-11-12T01:22:56.207Z,0.00
2022-11-12T01:23:56.205Z,0.00
2022-11-12T01:24:56.199Z,0.00
2022-11-12T01:25:56.208Z,0.00
2022-11-12T01:26:56.197Z,0.00
2022-11-12T01:27:56.190Z,0.00
2022-11-12T01:28:56.185Z,0.00
2022-11-12T01:29:56.187Z,0.00
2022-11-12T01:30:56.185Z,0.00
2022-11-12T01:31:56.175Z,0.00
2022-11-12T01:32:56.178Z,0.00
2022-11-12T01:33:56.173Z,0.00
2022-11-12T01:34:56.171Z,0.00
2022-11-12T01:35:56.283Z,0.00
2022-11-12T01:36:56.163Z,0.00
2022-11-12T01:37:56.162Z,0.00
2022-11-12T01:38:56.163Z,0.00
2022-11-12T01:39:56.156Z,0.00
2022-11-12T01:40:56.148Z,0.00
2022-11-12T01:41:56.149Z,0.00
2022-11-12T01:42:56.146Z,0.00
2022-11-12T01:43:56.144Z,0.00
2022-11-12T01:44:56.140Z,0.00
2022-11-12T01:45:56.139Z,0.00
2022-11-12T01:46:56.134Z,0.00
2022-11-12T01:47:56.133Z,0.00
2022-11-12T01:48:56.130Z,0.00
2022-11-12T01:49:57.255Z,0.00
2022-11-12T01:50:56.129Z,0.00
2022-11-12T01:51:56.243Z,0.00
2022-11-12T01:52:56.124Z,0.00
2022-11-12T01:53:56.110Z,0.00
2022-11-12T01:54:56.107Z,0.00
2022-11-12T01:55:56.101Z,0.00
2022-11-12T01:56:56.104Z,0.00
2022-11-12T01:57:56.094Z,0.00
2022-11-12T01:58:56.101Z,0.00
2022-11-12T01:59:56.093Z,0.00
2022-11-12T02:00:56.115Z,0.00
2022-11-12T02:01:56.085Z,0.00
2022-11-12T02:02:56.092Z,0.00
2022-11-12T02:03:56.081Z,0.00
2022-11-12T02:04:56.080Z,0.00
2022-11-12T02:05:56.076Z,0.00
2022-11-12T02:06:56.130Z,0.00
2022-11-12T02:07:56.181Z,0.00
2022-11-12T02:08:56.064Z,0.00
2022-11-12T02:09:56.061Z,0.00
2022-11-12T02:10:56.057Z,0.00
2022-11-12T02:11:56.056Z,0.00
2022-11-12T02:12:56.052Z,0.00
2022-11-12T02:13:56.052Z,0.00
2022-11-12T02:14:56.063Z,0.00
2022-11-12T02:15:56.047Z,0.00
2022-11-12T02:16:56.054Z,0.00
2022-11-12T02:17:56.040Z,0.00
2022-11-12T02:18:56.036Z,0.00
2022-11-12T02:19:56.045Z,0.00
2022-11-12T02:20:56.030Z,0.00
2022-11-12T02:21:56.025Z,0.00
2022-11-12T02:22:56.230Z,0.00
2022-11-12T02:23:56.129Z,0.00
2022-11-12T02:24:56.063Z,0.00
2022-11-12T02:25:56.119Z,0.00
2022-11-12T02:26:56.011Z,0.00
2022-11-12T02:27:56.064Z,0.00
2022-11-12T02:28:56.334Z,0.00
2022-11-12T02:29:56.001Z,0.00
2022-11-12T02:30:56.011Z,0.00
2022-11-12T02:31:55.986Z,0.00
2022-11-12T02:32:55.991Z,0.00
2022-11-12T02:33:55.986Z,0.00
2022-11-12T02:34:55.984Z,0.00
2022-11-12T02:35:55.984Z,0.00
2022-11-12T02:36:55.977Z,0.00
2022-11-12T02:37:55.981Z,0.00
2022-11-12T02:38:55.971Z,0.00
2022-11-12T02:39:56.090Z,0.00
2022-11-12T02:40:55.966Z,0.00
2022-11-12T02:41:55.968Z,0.00
2022-11-12T02:42:55.961Z,0.00
2022-11-12T02:43:55.955Z,0.00
2022-11-12T02:44:55.953Z,0.00
2022-11-12T02:45:55.952Z,0.00
2022-11-12T02:46:55.947Z,0.00
2022-11-12T02:47:55.945Z,0.00
2022-11-12T02:48:55.935Z,0.00
2022-11-12T02:49:55.937Z,0.00
2022-11-12T02:50:55.933Z,0.00
2022-11-12T02:51:55.932Z,0.00
2022-11-12T02:52:55.921Z,0.00
2022-11-12T02:53:55.927Z,0.00
2022-11-12T02:54:55.921Z,0.00
2022-11-12T02:55:56.041Z,0.00
2022-11-12T02:56:55.913Z,0.00
2022-11-12T02:57:55.913Z,0.00
2022-11-12T02:58:55.902Z,0.00
2022-11-12T02:59:55.903Z,0.00
2022-11-12T03:00:55.965Z,0.00
2022-11-12T03:01:55.900Z,0.00
2022-11-12T03:02:55.892Z,0.00
2022-11-12T03:03:55.888Z,0.00
2022-11-12T03:04:55.895Z,0.00
2022-11-12T03:05:55.880Z,0.00
2022-11-12T03:06:55.984Z,0.00
2022-11-12T03:07:55.882Z,0.00
2022-11-12T03:08:55.874Z,0.00
2022-11-12T03:09:55.875Z,0.00
2022-11-12T03:10:55.871Z,0.00
2022-11-12T03:11:55.982Z,0.00
2022-11-12T03:12:55.861Z,0.00
2022-11-12T03:13:55.865Z,0.00
2022-11-12T03:14:55.858Z,0.00
2022-11-12T03:15:55.848Z,0.00
2022-11-12T03:16:55.851Z,0.00
2022-11-12T03:17:55.853Z,0.00
2022-11-12T03:18:55.840Z,0.00
2022-11-12T03:19:55.845Z,0.00
2022-11-12T03:20:55.839Z,0.00
2022-11-12T03:21:55.839Z,0.00
2022-11-12T03:22:55.831Z,0.00
2022-11-12T03:23:55.832Z,0.00
2022-11-12T03:24:55.827Z,0.00
2022-11-12T03:25:55.829Z,0.00
2022-11-12T03:26:55.815Z,0.00
2022-11-12T03:27:55.926Z,0.00
2022-11-12T03:28:55.812Z,0.00
2022-11-12T03:29:55.813Z,0.00
2022-11-12T03:30:55.803Z,0.00
2022-11-12T03:31:55.800Z,0.00
2022-11-12T03:32:55.812Z,0.00
2022-11-12T03:33:55.805Z,0.00
2022-11-12T03:34:55.904Z,0.00
2022-11-12T03:35:55.789Z,0.00
2022-11-12T03:36:55.788Z,0.00
2022-11-12T03:37:55.785Z,0.00
2022-11-12T03:38:55.783Z,0.00
2022-11-12T03:39:55.783Z,0.00
2022-11-12T03:40:55.777Z,0.00
2022-11-12T03:41:55.773Z,0.00
2022-11-12T03:42:55.766Z,0.00
2022-11-12T03:43:55.875Z,0.00
2022-11-12T03:44:55.763Z,0.00
2022-11-12T03:45:55.760Z,0.00
2022-11-12T03:46:55.753Z,0.00
2022-11-12T03:47:55.752Z,0.00
2022-11-12T03:48:55.746Z,0.00
2022-11-12T03:49:55.791Z,0.00
2022-11-12T03:50:55.741Z,0.00
2022-11-12T03:51:55.739Z,0.00
2022-11-12T03:52:55.737Z,0.00
2022-11-12T03:53:55.733Z,0.00
2022-11-12T03:54:55.724Z,0.00
2022-11-12T03:55:55.729Z,0.00
2022-11-12T03:56:55.716Z,0.00
2022-11-12T03:57:55.716Z,0.00
2022-11-12T03:58:55.709Z,0.00
2022-11-12T03:59:55.823Z,0.00
2022-11-12T04:00:55.785Z,0.00
2022-11-12T04:01:55.706Z,0.00
2022-11-12T04:02:55.700Z,0.00
2022-11-12T04:03:55.699Z,0.00
2022-11-12T04:04:55.686Z,0.00
2022-11-12T04:05:55.692Z,0.00
2022-11-12T04:06:55.712Z,0.00
2022-11-12T04:07:55.685Z,0.00
2022-11-12T04:08:55.679Z,0.00
2022-11-12T04:09:55.679Z,0.00
2022-11-12T04:10:55.678Z,0.00
2022-11-12T04:11:55.676Z,0.00
2022-11-12T04:12:55.672Z,0.00
2022-11-12T04:13:43.740Z,0.00
2022-11-12T04:14:43.728Z,0.00
2022-11-12T04:15:43.854Z,0.00
2022-11-12T04:16:43.718Z,0.00
2022-11-12T04:17:43.727Z,0.00
2022-11-12T04:18:43.716Z,0.00
2022-11-12T04:19:43.711Z,0.00
2022-11-12T04:20:43.710Z,0.00
2022-11-12T04:21:43.702Z,0.00
2022-11-12T04:22:43.703Z,0.00
2022-11-12T04:23:43.702Z,0.00
2022-11-12T04:24:43.704Z,0.00
2022-11-12T04:25:43.694Z,0.00
2022-11-12T04:26:43.688Z,0.00
2022-11-12T04:27:43.688Z,0.00
2022-11-12T04:28:43.685Z,0.00
2022-11-12T04:29:43.683Z,0.00
2022-11-12T04:30:43.675Z,0.00
2022-11-12T04:31:43.787Z,0.00
2022-11-12T04:32:43.672Z,0.00
2022-11-12T04:33:43.665Z,0.00
2022-11-12T04:34:43.713Z,0.00
2022-11-12T04:35:43.667Z,0.00
2022-11-12T04:36:43.657Z,0.00
2022-11-12T04:37:43.654Z,0.00
2022-11-12T04:38:43.648Z,0.00
2022-11-12T04:39:43.651Z,0.00
2022-11-12T04:40:43.636Z,0.00
2022-11-12T04:41:43.637Z,0.00
2022-11-12T04:42:43.636Z,0.00
2022-11-12T04:43:43.632Z,0.00
2022-11-12T04:44:43.627Z,0.00
2022-11-12T04:45:43.622Z,0.00
2022-11-12T04:46:43.620Z,0.00
2022-11-12T04:47:43.738Z,0.00
2022-11-12T04:48:43.615Z,0.00
2022-11-12T04:49:43.612Z,0.00
2022-11-12T04:50:43.604Z,0.00
2022-11-12T04:51:43.601Z,0.00
2022-11-12T04:52:43.605Z,0.00
2022-11-12T04:53:43.597Z,0.00
2022-11-12T04:54:43.602Z,0.00
2022-11-12T04:55:43.589Z,0.00
2022-11-12T04:56:43.584Z,0.00
2022-11-12T04:57:43.582Z,0.00
2022-11-12T04:58:43.578Z,0.00
2022-11-12T04:59:43.579Z,0.00
2022-11-12T05:00:43.572Z,0.00
2022-11-12T05:01:43.761Z,0.00
2022-11-12T05:02:43.567Z,0.00
2022-11-12T05:03:43.680Z,0.00
2022-11-12T05:04:43.559Z,0.00
2022-11-12T05:05:43.555Z,0.00
2022-11-12T05:06:43.621Z,0.00
2022-11-12T05:07:43.550Z,0.00
2022-11-12T05:08:43.540Z,0.00
2022-11-12T05:09:43.544Z,0.00
2022-11-12T05:10:43.536Z,0.00
2022-11-12T05:11:43.538Z,0.00
2022-11-12T05:12:43.532Z,0.00
2022-11-12T05:13:43.529Z,0.00
2022-11-12T05:14:43.522Z,0.00
2022-11-12T05:15:43.520Z,0.00
2022-11-12T05:16:43.517Z,0.00
2022-11-12T05:17:43.518Z,0.00
2022-11-12T05:18:43.512Z,0.00
2022-11-12T05:19:43.621Z,0.00
2022-11-12T05:20:43.501Z,0.00
2022-11-12T05:21:43.875Z,0.00
2022-11-12T05:22:54.258Z,0.00
2022-11-12T05:23:43.495Z,0.00
2022-11-12T05:24:43.488Z,0.00
2022-11-12T05:25:43.483Z,0.00
2022-11-12T05:26:43.479Z,0.00
2022-11-12T05:27:43.477Z,0.00
2022-11-12T05:28:43.473Z,0.00
2022-11-12T05:29:43.473Z,0.00
2022-11-12T05:30:43.469Z,0.00
2022-11-12T05:31:43.468Z,0.00
2022-11-12T05:32:43.456Z,0.00
2022-11-12T05:33:43.456Z,0.00
2022-11-12T05:34:43.480Z,0.00
2022-11-12T05:35:43.562Z,0.00
2022-11-12T05:36:43.445Z,0.00
2022-11-12T05:37:43.442Z,0.00
2022-11-12T05:38:43.437Z,0.00
2022-11-12T05:39:43.436Z,0.00
2022-11-12T05:40:43.432Z,0.00
2022-11-12T05:42:10.867Z,0.00
2022-11-12T05:42:43.426Z,0.00
2022-11-12T05:43:43.419Z,0.00
2022-11-12T05:44:43.418Z,0.00
2022-11-12T05:45:43.410Z,4.00
2022-11-12T05:46:43.414Z,4.00
2022-11-12T05:47:43.407Z,0.00
2022-11-12T05:48:43.407Z,0.00
2022-11-12T05:49:43.394Z,4.00
2022-11-12T05:51:06.180Z,0.00
2022-11-12T05:51:43.513Z,4.00
2022-11-12T05:52:43.385Z,4.00
2022-11-12T05:53:43.383Z,4.00
2022-11-12T05:54:43.377Z,4.00
2022-11-12T05:55:43.378Z,4.00
2022-11-12T05:56:43.372Z,8.00
2022-11-12T05:57:43.366Z,8.00
2022-11-12T05:58:43.365Z,12.00
2022-11-12T05:59:43.361Z,12.00
2022-11-12T06:00:43.356Z,16.00
2022-11-12T06:01:43.353Z,16.00
2022-11-12T06:02:43.412Z,20.00
2022-11-12T06:03:43.353Z,24.00
2022-11-12T06:04:43.341Z,24.00
2022-11-12T06:05:43.343Z,28.00
2022-11-12T06:06:43.380Z,32.00
2022-11-12T06:07:43.453Z,36.00
2022-11-12T06:08:43.335Z,40.00
2022-11-12T06:09:43.323Z,48.00
2022-11-12T06:10:43.327Z,52.00
2022-11-12T06:11:43.322Z,60.00
2022-11-12T06:12:43.312Z,64.00
2022-11-12T06:13:43.312Z,72.00
2022-11-12T06:14:43.304Z,80.00
2022-11-12T06:15:43.304Z,88.00
2022-11-12T06:16:43.300Z,96.00
2022-11-12T06:17:43.291Z,108.00
2022-11-12T06:18:43.293Z,120.00
2022-11-12T06:19:43.288Z,128.00
2022-11-12T06:20:43.283Z,140.00
2022-11-12T06:21:43.283Z,148.00
2022-11-12T06:22:43.277Z,156.00
2022-11-12T06:23:43.383Z,168.00
2022-11-12T06:24:43.267Z,180.00
2022-11-12T06:25:43.269Z,196.00
2022-11-12T06:26:43.267Z,212.00
2022-11-12T06:27:43.258Z,232.00
2022-11-12T06:28:43.295Z,252.00
2022-11-12T06:29:43.250Z,272.00
2022-11-12T06:30:43.246Z,296.00
2022-11-12T06:31:43.247Z,320.00
2022-11-12T06:32:43.242Z,344.00
2022-11-12T06:33:43.232Z,372.00
2022-11-12T06:34:43.233Z,396.00
2022-11-12T06:35:43.474Z,420.00
2022-11-12T06:36:43.227Z,440.00
2022-11-12T06:37:43.219Z,460.00
2022-11-12T06:38:43.219Z,480.00
2022-11-12T06:39:43.333Z,500.00
2022-11-12T06:40:43.210Z,532.00
2022-11-12T06:41:43.208Z,556.00
2022-11-12T06:42:43.200Z,576.00
2022-11-12T06:43:43.198Z,596.00
2022-11-12T06:44:43.192Z,628.00
2022-11-12T06:45:43.196Z,660.00
2022-11-12T06:46:43.186Z,700.00
2022-11-12T06:47:43.183Z,732.00
2022-11-12T06:48:43.175Z,764.00
2022-11-12T06:49:43.175Z,792.00
2022-11-12T06:50:43.167Z,820.00
2022-11-12T06:51:43.170Z,844.00
2022-11-12T06:52:43.185Z,880.00
2022-11-12T06:53:43.157Z,924.00
2022-11-12T06:54:43.153Z,964.00
2022-11-12T06:55:43.275Z,1008.00
2022-11-12T06:56:43.150Z,1060.00
2022-11-12T06:57:43.145Z,1100.00
2022-11-12T06:58:43.143Z,1148.00
2022-11-12T06:59:43.142Z,1192.00
2022-11-12T07:00:43.139Z,1224.00
2022-11-12T07:01:43.222Z,1272.00
2022-11-12T07:02:43.126Z,1320.00
2022-11-12T07:03:43.127Z,1336.00
2022-11-12T07:04:43.123Z,1348.00
2022-11-12T07:05:43.124Z,1424.00
2022-11-12T07:06:43.173Z,1492.00
2022-11-12T07:07:43.109Z,1536.00
2022-11-12T07:08:43.105Z,1532.00
2022-11-12T07:09:43.100Z,1676.00
2022-11-12T07:10:43.100Z,1852.00
2022-11-12T07:11:43.211Z,1944.00
2022-11-12T07:12:43.089Z,2032.00
2022-11-12T07:13:43.089Z,2088.00
2022-11-12T07:14:43.081Z,2148.00
2022-11-12T07:15:43.080Z,2264.00
2022-11-12T07:16:43.077Z,2036.00
2022-11-12T07:17:43.071Z,1968.00
2022-11-12T07:18:43.075Z,2000.00
2022-11-12T07:19:43.067Z,1804.00
2022-11-12T07:20:43.057Z,1912.00
2022-11-12T07:21:43.064Z,2000.00
2022-11-12T07:22:43.057Z,2080.00
2022-11-12T07:23:43.056Z,2172.00
2022-11-12T07:24:43.048Z,2464.00
2022-11-12T07:25:43.043Z,2248.00
2022-11-12T07:26:47.321Z,2024.00
2022-11-12T07:27:43.150Z,2092.00
2022-11-12T07:28:43.037Z,2424.00
2022-11-12T07:29:48.101Z,2140.00
2022-11-12T07:30:43.026Z,2400.00
2022-11-12T07:31:43.025Z,2464.00
2022-11-12T07:32:47.179Z,2436.00
2022-11-12T07:33:43.015Z,2132.00
2022-11-12T07:34:43.018Z,1976.00
2022-11-12T07:35:43.007Z,2176.00
2022-11-12T07:36:43.003Z,2388.00
2022-11-12T07:37:43.003Z,2504.00
2022-11-12T07:38:42.995Z,2812.00
2022-11-12T07:39:42.993Z,2848.00
2022-11-12T07:40:42.990Z,2840.00
2022-11-12T07:41:43.006Z,3020.00
2022-11-12T07:42:42.983Z,3152.00
2022-11-12T07:43:43.092Z,3360.00
2022-11-12T07:44:42.976Z,3436.00
2022-11-12T07:45:42.975Z,3100.00
2022-11-12T07:46:42.972Z,3192.00
2022-11-12T07:47:42.977Z,3352.00
2022-11-12T07:48:42.966Z,3280.00
2022-11-12T07:49:42.964Z,3072.00
2022-11-12T07:50:42.957Z,2912.00
2022-11-12T07:51:42.957Z,3008.00
2022-11-12T07:52:42.955Z,3288.00
2022-11-12T07:53:42.951Z,3348.00
2022-11-12T07:54:42.946Z,3156.00
2022-11-12T07:55:42.948Z,2980.00
2022-11-12T07:56:42.940Z,2904.00
2022-11-12T07:57:42.940Z,2876.00
2022-11-12T07:58:42.937Z,2644.00
2022-11-12T07:59:46.144Z,2696.00
2022-11-12T08:00:42.930Z,2672.00
2022-11-12T08:01:43.043Z,2808.00
2022-11-12T08:02:42.924Z,2872.00
2022-11-12T08:03:42.929Z,2724.00
2022-11-12T08:04:42.924Z,2708.00
2022-11-12T08:05:42.911Z,2948.00
2022-11-12T08:06:43.131Z,3092.00
2022-11-12T08:07:43.039Z,3192.00
2022-11-12T08:08:42.905Z,3056.00
2022-11-12T08:09:42.904Z,3156.00
2022-11-12T08:10:42.905Z,3368.00
2022-11-12T08:11:42.900Z,3972.00
2022-11-12T08:12:42.894Z,4136.00
2022-11-12T08:13:42.894Z,4320.00
2022-11-12T08:14:42.892Z,4676.00
2022-11-12T08:15:45.769Z,4568.00
2022-11-12T08:16:42.880Z,4164.00
2022-11-12T08:17:42.883Z,3992.00
2022-11-12T08:18:42.883Z,3788.00
2022-11-12T08:19:42.881Z,3324.00
2022-11-12T08:20:42.871Z,3124.00
2022-11-12T08:21:42.872Z,3432.00
2022-11-12T08:22:48.890Z,3608.00
2022-11-12T08:23:42.864Z,3184.00
2022-11-12T08:24:42.866Z,2808.00
2022-11-12T08:25:42.863Z,2740.00
2022-11-12T08:26:42.859Z,2948.00
2022-11-12T08:27:42.861Z,2780.00
2022-11-12T08:28:42.863Z,2848.00
2022-11-12T08:29:42.853Z,3296.00
2022-11-12T08:30:42.850Z,4232.00
2022-11-12T08:31:42.961Z,5252.00
2022-11-12T08:32:42.850Z,6724.00
2022-11-12T08:33:42.849Z,7944.00
2022-11-12T08:34:42.840Z,8484.00
2022-11-12T08:35:42.840Z,8540.00
2022-11-12T08:36:42.839Z,8856.00
2022-11-12T08:37:42.831Z,9372.00
2022-11-12T08:38:42.840Z,9200.00
2022-11-12T08:39:42.830Z,9032.00
2022-11-12T08:40:42.830Z,8512.00
2022-11-12T08:41:42.826Z,7096.00
2022-11-12T08:42:42.828Z,6712.00
2022-11-12T08:43:42.824Z,7352.00
2022-11-12T08:44:42.818Z,7872.00
2022-11-12T08:45:42.817Z,7948.00
2022-11-12T08:46:42.819Z,7280.00
2022-11-12T08:47:42.929Z,6848.00
2022-11-12T08:48:42.814Z,6632.00
2022-11-12T08:49:47.865Z,6788.00
2022-11-12T08:50:42.809Z,6948.00
2022-11-12T08:51:42.807Z,6968.00
2022-11-12T08:52:42.808Z,7648.00
2022-11-12T08:53:42.811Z,7380.00
2022-11-12T08:54:42.802Z,6732.00
2022-11-12T08:55:42.803Z,6204.00
2022-11-12T08:56:42.800Z,6272.00
2022-11-12T08:57:42.802Z,6248.00
2022-11-12T08:58:42.799Z,5732.00
2022-11-12T08:59:42.796Z,5664.00
2022-11-12T09:00:42.792Z,5832.00
2022-11-12T09:01:42.836Z,6212.00
2022-11-12T09:02:42.793Z,6872.00
2022-11-12T09:03:42.902Z,7500.00
2022-11-12T09:04:42.787Z,8712.00
2022-11-12T09:05:42.789Z,9316.00
2022-11-12T09:06:42.840Z,9024.00
2022-11-12T09:07:49.991Z,8788.00
2022-11-12T09:08:42.785Z,8224.00
2022-11-12T09:09:42.777Z,8692.00
2022-11-12T09:10:42.787Z,8956.00
2022-11-12T09:11:42.784Z,9212.00
2022-11-12T09:12:42.780Z,9492.00
2022-11-12T09:13:42.817Z,9852.00
2022-11-12T09:14:42.772Z,9984.00
2022-11-12T09:15:42.778Z,9748.00
2022-11-12T09:16:42.773Z,9792.00
2022-11-12T09:17:42.770Z,10980.00
2022-11-12T09:18:42.772Z,12008.00
2022-11-12T09:19:43.292Z,10956.00
2022-11-12T09:20:42.773Z,10056.00
2022-11-12T09:21:42.766Z,9816.00
2022-11-12T09:22:42.772Z,10212.00
2022-11-12T09:23:42.764Z,10696.00
2022-11-12T09:24:42.769Z,11048.00
2022-11-12T09:25:42.764Z,12492.00
2022-11-12T09:26:42.767Z,12988.00
2022-11-12T09:27:48.163Z,11104.00
2022-11-12T09:28:42.762Z,9992.00
2022-11-12T09:29:42.757Z,8956.00
2022-11-12T09:30:42.763Z,8512.00
2022-11-12T09:31:42.759Z,8772.00
2022-11-12T09:32:42.764Z,9272.00
2022-11-12T09:33:42.754Z,10632.00
2022-11-12T09:34:42.760Z,11772.00
2022-11-12T09:35:42.870Z,13060.00
2022-11-12T09:36:42.797Z,13912.00
2022-11-12T09:37:42.755Z,13676.00
2022-11-12T09:38:42.769Z,13304.00
2022-11-12T09:39:42.767Z,13316.00
2022-11-12T09:40:42.797Z,14828.00
2022-11-12T09:41:42.755Z,15636.00
2022-11-12T09:42:42.755Z,15512.00
2022-11-12T09:43:42.749Z,15472.00
2022-11-12T09:44:42.754Z,15680.00
2022-11-12T09:45:50.310Z,13352.00
2022-11-12T09:46:42.749Z,10424.00
2022-11-12T09:47:42.751Z,10340.00
2022-11-12T09:48:42.752Z,10436.00
2022-11-12T09:49:42.756Z,10920.00
2022-11-12T09:50:42.752Z,11592.00
2022-11-12T09:51:42.870Z,11228.00
2022-11-12T09:52:42.753Z,10736.00
2022-11-12T09:53:44.498Z,10508.00
2022-11-12T09:54:42.751Z,10316.00
2022-11-12T09:55:42.769Z,10244.00
2022-11-12T09:56:42.751Z,10244.00
2022-11-12T09:57:42.752Z,10340.00
2022-11-12T09:58:42.746Z,10536.00
2022-11-12T09:59:42.746Z,10876.00
2022-11-12T10:00:45.071Z,11304.00
2022-11-12T10:01:42.777Z,11776.00
2022-11-12T10:02:42.748Z,12056.00
2022-11-12T10:03:42.749Z,12208.00
2022-11-12T10:04:42.750Z,12176.00
2022-11-12T10:05:42.743Z,12088.00
2022-11-12T10:06:42.808Z,12152.00
2022-11-12T10:07:42.863Z,12168.00
2022-11-12T10:08:42.755Z,12508.00
2022-11-12T10:09:42.748Z,12472.00
2022-11-12T10:10:42.744Z,12368.00
2022-11-12T10:11:42.748Z,12408.00
2022-11-12T10:12:42.746Z,12472.00
2022-11-12T10:13:42.745Z,12476.00
2022-11-12T10:14:42.745Z,12436.00
2022-11-12T10:15:42.748Z,12300.00
2022-11-12T10:16:42.750Z,12272.00
2022-11-12T10:17:42.750Z,12368.00
2022-11-12T10:18:42.744Z,12348.00
2022-11-12T10:19:42.747Z,12584.00
2022-11-12T10:20:42.747Z,13452.00
2022-11-12T10:21:42.743Z,13320.00
2022-11-12T10:22:42.749Z,13768.00
2022-11-12T10:23:42.871Z,14492.00
2022-11-12T10:24:42.749Z,14952.00
2022-11-12T10:25:42.751Z,15388.00
2022-11-12T10:26:42.749Z,15532.00
2022-11-12T10:27:42.746Z,16256.00
2022-11-12T10:28:42.751Z,19552.00
2022-11-12T10:29:42.746Z,20704.00
2022-11-12T10:30:42.752Z,21344.00
2022-11-12T10:31:42.750Z,20608.00
2022-11-12T10:32:42.753Z,22432.00
2022-11-12T10:33:42.749Z,19680.00
2022-11-12T10:34:42.750Z,20704.00
2022-11-12T10:35:42.751Z,18976.00
2022-11-12T10:36:42.756Z,18528.00
2022-11-12T10:37:42.750Z,17760.00
2022-11-12T10:38:42.750Z,22688.00
2022-11-12T10:39:42.877Z,19840.00
2022-11-12T10:40:42.758Z,18848.00
2022-11-12T10:41:42.754Z,21152.00
2022-11-12T10:42:42.760Z,24640.00
2022-11-12T10:43:42.755Z,27712.00
2022-11-12T10:44:42.757Z,26304.00
2022-11-12T10:45:42.849Z,23936.00
2022-11-12T10:46:42.766Z,26688.00
2022-11-12T10:47:42.891Z,28512.00
2022-11-12T10:48:42.764Z,28960.00
2022-11-12T10:49:42.773Z,35072.00
2022-11-12T10:50:42.765Z,27104.00
2022-11-12T10:51:42.767Z,29984.00
2022-11-12T10:52:42.770Z,25824.00
2022-11-12T10:53:42.766Z,28896.00
2022-11-12T10:54:42.770Z,25568.00
2022-11-12T10:55:42.885Z,26912.00
2022-11-12T10:56:42.775Z,24128.00
2022-11-12T10:57:42.773Z,23584.00
2022-11-12T10:58:42.775Z,27776.00
2022-11-12T10:59:42.780Z,30944.00
2022-11-12T11:00:42.787Z,31168.00
2022-11-12T11:01:45.704Z,40576.00
2022-11-12T11:02:42.791Z,46624.00
2022-11-12T11:03:42.801Z,46560.00
2022-11-12T11:04:42.790Z,41472.00
2022-11-12T11:05:42.791Z,44992.00
2022-11-12T11:06:42.845Z,39776.00
2022-11-12T11:07:42.800Z,35168.00
2022-11-12T11:08:42.809Z,35392.00
2022-11-12T11:09:42.804Z,33440.00
2022-11-12T11:10:42.810Z,28416.00
2022-11-12T11:11:42.925Z,32000.00
2022-11-12T11:12:42.836Z,30976.00
2022-11-12T11:13:42.821Z,31072.00
2022-11-12T11:14:42.832Z,26816.00
2022-11-12T11:15:42.830Z,27008.00
2022-11-12T11:16:42.839Z,26688.00
2022-11-12T11:17:42.842Z,24320.00
2022-11-12T11:18:42.844Z,26240.00
2022-11-12T11:19:42.867Z,26176.00
2022-11-12T11:20:42.862Z,30304.00
2022-11-12T11:21:43.574Z,31552.00
2022-11-12T11:22:42.875Z,28864.00
2022-11-12T11:23:42.876Z,27744.00
2022-11-12T11:24:42.880Z,28256.00
2022-11-12T11:25:42.893Z,26048.00
2022-11-12T11:26:42.893Z,27648.00
2022-11-12T11:27:43.009Z,29312.00
2022-11-12T11:28:42.907Z,29056.00
2022-11-12T11:29:43.007Z,29056.00
2022-11-12T11:30:42.915Z,30080.00
2022-11-12T11:31:42.924Z,35392.00
2022-11-12T11:32:42.932Z,34432.00
2022-11-12T11:33:42.940Z,34848.00
2022-11-12T11:34:42.948Z,36288.00
2022-11-12T11:35:42.951Z,37792.00
2022-11-12T11:36:42.968Z,38048.00
2022-11-12T11:37:42.961Z,39456.00
2022-11-12T11:38:42.971Z,37792.00
2022-11-12T11:40:40.561Z,36928.00
2022-11-12T11:41:40.572Z,37120.00
2022-11-12T11:42:40.575Z,36288.00
2022-11-12T11:43:40.802Z,35584.00
2022-11-12T11:44:40.593Z,36000.00
2022-11-12T11:45:40.606Z,36512.00
2022-11-12T11:46:40.614Z,36352.00
2022-11-12T11:48:00.029Z,36160.00
2022-11-12T11:48:40.631Z,35616.00
2022-11-12T11:49:40.641Z,34912.00
2022-11-12T11:50:40.650Z,33952.00
2022-11-12T11:51:40.658Z,27520.00
2022-11-12T11:52:40.665Z,16768.00
2022-11-12T11:53:40.672Z,11540.00
2022-11-12T11:54:40.682Z,9592.00
2022-11-12T11:55:40.702Z,8252.00
2022-11-12T11:56:40.711Z,7324.00
2022-11-12T11:57:40.710Z,6656.00
2022-11-12T11:58:40.725Z,6136.00
2022-11-12T11:59:40.849Z,5712.00
2022-11-12T12:00:40.742Z,5400.00
2022-11-12T12:01:40.752Z,5196.00
2022-11-12T12:02:40.759Z,5068.00
2022-11-12T12:03:40.810Z,4964.00
2022-11-12T12:04:40.777Z,4880.00
2022-11-12T12:05:40.785Z,4796.00
2022-11-12T12:06:40.843Z,4708.00
2022-11-12T12:07:40.799Z,4620.00
2022-11-12T12:08:40.810Z,4532.00
2022-11-12T12:09:40.817Z,4392.00
2022-11-12T12:11:06.299Z,4308.00
2022-11-12T12:11:40.828Z,4284.00
2022-11-12T12:12:40.846Z,4272.00
2022-11-12T12:13:40.847Z,4264.00
2022-11-12T12:14:40.850Z,4180.00
2022-11-12T12:15:40.969Z,4092.00
2022-11-12T12:16:40.867Z,4012.00
2022-11-12T12:17:40.871Z,3904.00
2022-11-12T12:18:40.873Z,3800.00
2022-11-12T12:19:40.875Z,3772.00
2022-11-12T12:20:40.883Z,3764.00
2022-11-12T12:21:40.891Z,3772.00
2022-11-12T12:22:40.891Z,3832.00
2022-11-12T12:23:40.899Z,3884.00
2022-11-12T12:24:40.904Z,3896.00
2022-11-12T12:25:40.911Z,3908.00
2022-11-12T12:26:40.912Z,3896.00
2022-11-12T12:27:40.920Z,3860.00
2022-11-12T12:28:40.924Z,3772.00
2022-11-12T12:29:40.919Z,3712.00
2022-11-12T12:30:40.937Z,3716.00
2022-11-12T12:31:41.047Z,3740.00
2022-11-12T12:32:40.935Z,3712.00
2022-11-12T12:33:40.947Z,3644.00
2022-11-12T12:34:40.944Z,3576.00
2022-11-12T12:35:40.946Z,3540.00
2022-11-12T12:36:40.955Z,3540.00
2022-11-12T12:37:40.951Z,3528.00